Pleasant Hills, Pennsylvania
Current Conditions -  °F | °C
As of 9:53 PM on Sunday 21 Dec 2014 (Local Time) from KAGC Reporting Station
Haze Haze  
Wind Chill: 22°   Ceiling: Unl
Heat Index: 27°   Visibility: 6mi
Dew Point: 19°   Wind: 5mph
Humidity: 72%   Direction: 50°NE
Pressure: 30.19"   Gusts: NA
Location:  40.3383°N, 79.9805°W
Report Text: KAGC 220253Z 05004KT 6SM HZ CLR M03/M07 A3019 RMK AO2 SLP243 T10281072 58007
Loading
Personal Weather Stations






























Interactive Weather Map New forecast layout! Learn more

10-Day Weather Forecast

Advertisements
Track Severe Weather on mobile